Aérodrome :







RETROUVEZ-NOUS SUR...

 
LOGIN :

S'inscrire | Disclaimer

   EN    FR    IT 

 









Légende :    VFR   VFR Marginal   IFR   IFR Intensif   IFR Très Intensif
Visi : 
Plafond : 
>= 8 km
>= 3000ft
5 à 8 km
1000 à 3000 ft
1500m à 5 km
500 à 1000 ft
800 à 1500m
200 à 500 ft
< 800m
< 200 ft
Symboles :   Orages  Brouillard  Fortes neiges  Fortes précipitations  Vent > 20 kt






- Altitude de l'aérodrome : 335 ft
- Code IATA : BTV


KBTV - Burlington International

DERNIER METAR :
  • 272054Z 26013G19KT 9SM -SN OVC036 M01/M08 A2935 RMK AO2 PK WND 23028/2006 SLP942 P0000 60002 T10061078 53038

METARs EXPIRÉS :
  • 271954Z 23007KT 7SM -SN OVC037 00/M06 A2931 RMK AO2 SLP927 P0001 T00001056
  • 271921Z 20007KT 5SM -SN SCT026 BKN035 OVC044 00/M03 A2928 RMK AO2 P0001 T00001028
  • 271854Z 22007KT 1SM R15/P6000FT -SN BR FEW009 BKN028 OVC055 00/M02 A2926 RMK AO2 SLP913 VIS W-NE 4 P0001 T00001022
  • 271824Z 23007KT 1SM R15/P6000FT -SN FEW009 OVC019 01/M02 A2925 RMK AO2 SFC VIS 2 P0001 T00061022

TAF KBTV
Valide du 27 à 21h jusqu'au 28 à 18h UTC


272100Z 2721/2818 26012G20KT P6SM -SHSN OVC035
FM272300 24019G28KT P6SM OVC035
FM281100 25017G24KT P6SM VCSH OVC035



MET'MAP, la Météo Aéronautique d'un coup d'oeil ! - Copyright ORBIFLY Décembre 2007 - Disclaimer

ORBIFLY MET'MAP TEAM :

Programmation & Développement : Alexandra Zaïnal
Sur une idée originale de : Baudouin d'Aumeries
Assistance à la programmation : Marc-Olivier Méhu
Soutien technique & logistique : Manuel Goepfert

Contact : metmap@orbifly.com




SOURCES & CREDITS :

   NOAA